Time;durP1;ratioP1;P1;durP2;ratioP2;P2;SDS_P1;SDS_P2;PMS_P1;PMS_P2;Temp;Humidity;BMP_temperature;BMP_pressure;BME280_temperature;BME280_humidity;BME280_pressure;Samples;Min_cycle;Max_cycle;Signal;HPM_P1;HPM_P2
2023/12/05 00:02:07;;;;;;;26.07;18.73;;;2.80;99.90;;;;;;5031133;28;20734;-68
2023/12/05 00:04:33;;;;;;;26.67;18.73;;;2.80;99.90;;;;;;5036780;28;20178;-69
2023/12/05 00:06:58;;;;;;;26.77;19.60;;;2.90;99.90;;;;;;5036166;28;20795;-69
2023/12/05 00:09:24;;;;;;;26.20;18.40;;;2.80;99.90;;;;;;5036291;28;20172;-69
2023/12/05 00:11:50;;;;;;;27.50;19.50;;;2.80;99.90;;;;;;5035886;28;20180;-69
2023/12/05 00:14:16;;;;;;;28.13;20.10;;;2.90;99.90;;;;;;5036095;28;20217;-69
2023/12/05 00:16:41;;;;;;;30.97;20.47;;;2.90;99.90;;;;;;5033144;28;20211;-69
2023/12/05 00:19:07;;;;;;;27.43;19.53;;;2.90;99.90;;;;;;5033188;28;20179;-69
2023/12/05 00:21:33;;;;;;;26.57;19.13;;;2.90;99.90;;;;;;5033009;28;20203;-69
2023/12/05 00:23:58;;;;;;;28.93;19.67;;;2.90;99.90;;;;;;5015347;28;20192;-69
2023/12/05 00:26:24;;;;;;;30.50;20.63;;;2.90;99.90;;;;;;5013445;28;20453;-69
2023/12/05 00:28:49;;;;;;;27.67;19.57;;;2.90;99.90;;;;;;5013015;28;20230;-69
2023/12/05 00:31:15;;;;;;;26.40;18.90;;;2.90;99.90;;;;;;5013089;28;20172;-69
2023/12/05 00:33:41;;;;;;;29.47;19.47;;;3.00;99.90;;;;;;5012995;28;20188;-69
2023/12/05 00:36:07;;;;;;;26.33;18.47;;;3.00;99.90;;;;;;5012775;28;20261;-69
2023/12/05 00:38:33;;;;;;;28.43;19.17;;;3.00;99.90;;;;;;5013048;28;20176;-69
2023/12/05 00:41:00;;;;;;;24.27;18.53;;;3.00;99.90;;;;;;5012788;28;20204;-69
2023/12/05 00:43:26;;;;;;;26.27;18.57;;;3.00;99.90;;;;;;5012977;28;20701;-69
2023/12/05 00:45:51;;;;;;;29.17;19.53;;;3.00;99.90;;;;;;5012592;28;20295;-69
2023/12/05 00:48:17;;;;;;;28.03;20.07;;;3.00;99.90;;;;;;5019119;28;20190;-69
2023/12/05 00:50:43;;;;;;;31.90;19.90;;;3.10;99.90;;;;;;5032292;28;20256;-69
2023/12/05 00:53:08;;;;;;;26.80;19.07;;;3.10;99.90;;;;;;5031264;28;20368;-69
2023/12/05 00:55:35;;;;;;;30.93;19.60;;;3.10;99.90;;;;;;5032232;28;20286;-69
2023/12/05 00:58:01;;;;;;;32.07;20.80;;;3.10;99.90;;;;;;5032186;28;20867;-69
2023/12/05 01:00:27;;;;;;;31.43;20.77;;;3.10;99.90;;;;;;5032464;28;20207;-69
2023/12/05 01:02:52;;;;;;;26.77;19.20;;;3.10;99.90;;;;;;5032149;28;20413;-68
2023/12/05 01:05:18;;;;;;;24.27;18.87;;;3.10;99.90;;;;;;5032611;28;20187;-69
2023/12/05 01:07:43;;;;;;;28.43;19.73;;;3.10;99.90;;;;;;5032114;28;20182;-69
2023/12/05 01:10:09;;;;;;;29.40;20.70;;;3.10;99.90;;;;;;5032149;28;20180;-69
2023/12/05 01:12:35;;;;;;;27.80;19.63;;;3.10;99.90;;;;;;5027856;28;20189;-68
2023/12/05 01:15:00;;;;;;;27.23;18.57;;;3.10;99.90;;;;;;5012277;28;20180;-68
2023/12/05 01:17:26;;;;;;;25.43;19.17;;;3.10;99.90;;;;;;5013109;28;20722;-68
2023/12/05 01:19:52;;;;;;;30.20;20.93;;;3.10;99.90;;;;;;5012032;28;20200;-69
2023/12/05 01:22:17;;;;;;;27.40;19.50;;;3.10;99.90;;;;;;5011782;28;20172;-70
2023/12/05 01:24:43;;;;;;;31.23;19.67;;;3.20;99.90;;;;;;5012072;28;20180;-70
2023/12/05 01:27:08;;;;;;;28.83;19.80;;;3.20;99.90;;;;;;5012024;28;20599;-69
2023/12/05 01:29:34;;;;;;;28.70;20.23;;;3.20;99.90;;;;;;5011870;28;20172;-69
2023/12/05 01:32:00;;;;;;;26.57;19.43;;;3.30;99.90;;;;;;5011513;28;20264;-69
2023/12/05 01:34:25;;;;;;;31.73;19.20;;;3.30;99.90;;;;;;5011969;28;20180;-69
2023/12/05 01:36:51;;;;;;;27.30;19.43;;;3.30;99.90;;;;;;5011500;28;20239;-70
2023/12/05 01:39:16;;;;;;;28.67;19.30;;;3.30;99.90;;;;;;5031500;28;20226;-70
2023/12/05 01:41:42;;;;;;;29.07;20.43;;;3.30;99.90;;;;;;5027527;28;20672;-69
2023/12/05 01:44:08;;;;;;;27.03;19.30;;;3.30;99.90;;;;;;5011681;28;20427;-69
2023/12/05 01:46:34;;;;;;;26.57;19.67;;;3.40;99.90;;;;;;5011953;28;20282;-70
2023/12/05 01:48:59;;;;;;;29.03;19.80;;;3.40;99.90;;;;;;5011683;28;20203;-70
2023/12/05 01:51:27;;;;;;;27.37;19.30;;;3.40;99.90;;;;;;5011642;28;20203;-70
2023/12/05 01:53:53;;;;;;;29.23;19.57;;;3.40;99.90;;;;;;5011120;28;20206;-70
2023/12/05 01:56:19;;;;;;;30.47;19.50;;;3.40;99.90;;;;;;5011239;28;20200;-69
2023/12/05 01:58:45;;;;;;;31.80;19.47;;;3.40;99.90;;;;;;5011575;28;20246;-69
2023/12/05 02:01:12;;;;;;;30.37;20.97;;;3.40;99.90;;;;;;5011086;28;20207;-70
2023/12/05 02:03:39;;;;;;;27.33;19.87;;;3.40;99.90;;;;;;5011454;28;20238;-70
2023/12/05 02:06:05;;;;;;;26.00;18.97;;;3.40;99.90;;;;;;5011325;28;20196;-70
2023/12/05 02:08:33;;;;;;;31.33;20.33;;;3.40;99.90;;;;;;5011221;28;20181;-70
2023/12/05 02:10:59;;;;;;;26.43;18.97;;;3.50;99.90;;;;;;5024133;28;20176;-70
2023/12/05 02:13:25;;;;;;;28.43;20.33;;;3.50;99.90;;;;;;5031161;28;20592;-70
2023/12/05 02:16:25;;;;;;;29.33;20.27;;;3.50;99.90;;;;;;5030177;28;20211;-69
2023/12/05 02:19:00;;;;;;;26.90;19.47;;;3.50;99.90;;;;;;5030497;28;20187;-69
2023/12/05 02:21:31;;;;;;;28.73;20.77;;;3.50;99.90;;;;;;5030564;28;20198;-70
2023/12/05 02:24:17;;;;;;;23.87;18.50;;;3.50;99.90;;;;;;5030269;28;20530;-70
2023/12/05 02:26:45;;;;;;;24.17;18.37;;;3.50;99.90;;;;;;5030732;28;20631;-70
2023/12/05 02:29:11;;;;;;;28.53;19.63;;;3.50;99.90;;;;;;5030573;28;20229;-69
2023/12/05 02:31:37;;;;;;;28.43;19.27;;;3.50;99.90;;;;;;5030570;28;20176;-70
2023/12/05 02:34:03;;;;;;;27.23;18.73;;;3.60;99.90;;;;;;5030095;28;20237;-69
2023/12/05 02:36:39;;;;;;;23.33;18.47;;;3.60;99.90;;;;;;5030408;28;20215;-69
2023/12/05 02:39:16;;;;;;;28.97;19.20;;;3.60;99.90;;;;;;5015339;28;20222;-70
2023/12/05 02:41:45;;;;;;;30.43;19.57;;;3.60;99.90;;;;;;5010498;28;20195;-70
2023/12/05 02:44:14;;;;;;;29.87;20.70;;;3.60;99.90;;;;;;5017802;28;20171;-70
2023/12/05 02:46:41;;;;;;;28.57;20.83;;;3.60;99.90;;;;;;5030187;28;20199;-70
2023/12/05 02:49:09;;;;;;;26.77;20.10;;;3.60;99.90;;;;;;5030652;28;20183;-70
2023/12/05 02:51:35;;;;;;;29.83;21.50;;;3.60;99.90;;;;;;5029945;28;20660;-69
2023/12/05 02:54:03;;;;;;;29.97;21.07;;;3.60;99.90;;;;;;5029590;28;20244;-69
2023/12/05 02:56:29;;;;;;;28.80;20.00;;;3.70;99.90;;;;;;5030154;28;20183;-69
2023/12/05 02:58:55;;;;;;;25.60;18.33;;;3.60;99.90;;;;;;5029731;28;20236;-69
2023/12/05 03:01:20;;;;;;;31.70;20.27;;;3.70;99.90;;;;;;5029747;28;20262;-68
2023/12/05 03:03:46;;;;;;;27.50;19.57;;;3.70;99.90;;;;;;5029905;28;20179;-68
2023/12/05 03:06:11;;;;;;;23.73;18.40;;;3.70;99.90;;;;;;5023047;28;20346;-69
2023/12/05 03:08:37;;;;;;;26.03;19.50;;;3.70;99.90;;;;;;5010699;28;20160;-69
2023/12/05 03:11:03;;;;;;;26.27;19.67;;;3.70;99.90;;;;;;5010181;28;20681;-68
2023/12/05 03:13:28;;;;;;;28.00;20.00;;;3.70;99.90;;;;;;5010233;28;20173;-68
2023/12/05 03:15:54;;;;;;;30.30;20.50;;;3.70;99.90;;;;;;5010198;28;20218;-69
2023/12/05 03:18:19;;;;;;;24.50;19.30;;;3.70;99.90;;;;;;5010759;28;20168;-69
2023/12/05 03:20:45;;;;;;;24.73;18.37;;;3.70;99.90;;;;;;5010616;28;20199;-69
2023/12/05 03:23:10;;;;;;;29.43;20.13;;;3.80;99.90;;;;;;5010486;28;20278;-69
2023/12/05 03:25:36;;;;;;;26.90;19.43;;;3.80;99.90;;;;;;5010448;28;20192;-68
2023/12/05 03:28:02;;;;;;;22.57;18.43;;;3.80;99.90;;;;;;5010150;28;20172;-69
2023/12/05 03:30:27;;;;;;;29.60;19.93;;;3.70;99.90;;;;;;5010475;28;20172;-69
2023/12/05 03:32:53;;;;;;;25.33;18.80;;;3.80;99.90;;;;;;5020060;28;20643;-69
2023/12/05 03:35:18;;;;;;;25.70;18.57;;;3.80;99.90;;;;;;5029559;28;20210;-69
2023/12/05 03:37:44;;;;;;;24.20;17.13;;;3.90;99.90;;;;;;5030036;28;20176;-69
2023/12/05 03:40:10;;;;;;;27.47;18.80;;;3.90;99.90;;;;;;5029855;28;20276;-68
2023/12/05 03:42:35;;;;;;;24.50;18.20;;;3.90;99.90;;;;;;5029784;28;20171;-69
2023/12/05 03:45:01;;;;;;;20.77;17.90;;;3.90;99.90;;;;;;5029786;28;20226;-68
2023/12/05 03:47:26;;;;;;;20.70;16.53;;;3.90;99.90;;;;;;5030148;28;20191;-68
2023/12/05 03:49:52;;;;;;;21.37;16.20;;;4.00;99.90;;;;;;5029498;28;20179;-69
2023/12/05 03:52:18;;;;;;;25.57;17.53;;;4.00;99.90;;;;;;5032044;28;20643;-68
2023/12/05 03:54:43;;;;;;;20.60;15.60;;;4.00;99.90;;;;;;5033540;28;20739;-70
2023/12/05 03:57:09;;;;;;;25.20;17.50;;;4.00;99.90;;;;;;5033436;28;20179;-70
2023/12/05 03:59:34;;;;;;;20.97;16.17;;;4.00;99.90;;;;;;5033495;28;20178;-69
2023/12/05 04:02:00;;;;;;;21.53;16.27;;;4.00;99.90;;;;;;5013945;28;20211;-69
2023/12/05 04:04:25;;;;;;;19.80;15.67;;;4.10;99.90;;;;;;5013815;28;20183;-69
2023/12/05 04:06:51;;;;;;;18.90;15.47;;;4.10;99.90;;;;;;5013728;28;20192;-69
2023/12/05 04:09:17;;;;;;;23.30;15.20;;;4.10;99.90;;;;;;5013894;28;20168;-69
2023/12/05 04:11:43;;;;;;;22.90;14.87;;;4.20;99.90;;;;;;5013416;28;20255;-68
2023/12/05 04:14:08;;;;;;;19.70;15.30;;;4.20;99.90;;;;;;5013275;28;21204;-70
2023/12/05 04:16:34;;;;;;;19.40;15.60;;;4.20;99.90;;;;;;5013632;28;20196;-69
2023/12/05 04:19:00;;;;;;;21.10;15.17;;;4.20;99.90;;;;;;5013268;28;20551;-69
2023/12/05 04:21:26;;;;;;;19.37;15.17;;;4.20;99.90;;;;;;5013311;28;20258;-69
2023/12/05 04:23:52;;;;;;;19.07;15.33;;;4.20;99.90;;;;;;5013279;28;20176;-69
2023/12/05 04:26:19;;;;;;;21.47;15.83;;;4.30;99.90;;;;;;5013406;28;20199;-69
2023/12/05 04:28:45;;;;;;;18.63;15.63;;;4.30;99.90;;;;;;5022277;28;20182;-69
2023/12/05 04:31:14;;;;;;;17.57;14.33;;;4.30;99.90;;;;;;5032875;28;20598;-69
2023/12/05 04:33:40;;;;;;;18.53;14.47;;;4.30;99.90;;;;;;5033617;28;20520;-69
2023/12/05 04:36:07;;;;;;;17.73;15.53;;;4.30;99.90;;;;;;5032504;28;20203;-69
2023/12/05 04:38:36;;;;;;;20.20;15.07;;;4.30;99.90;;;;;;5032908;28;20217;-69
2023/12/05 04:41:03;;;;;;;19.93;15.60;;;4.30;99.90;;;;;;5032294;28;20297;-69
2023/12/05 04:43:32;;;;;;;20.43;15.33;;;4.30;99.90;;;;;;5032450;28;20171;-69
2023/12/05 04:45:58;;;;;;;19.03;15.20;;;4.30;99.90;;;;;;5032407;28;20188;-69
2023/12/05 04:48:24;;;;;;;18.03;15.13;;;4.30;99.90;;;;;;5032562;28;20172;-69
2023/12/05 04:50:49;;;;;;;17.40;15.57;;;4.30;99.90;;;;;;5032469;28;20274;-69
2023/12/05 04:53:15;;;;;;;17.03;15.13;;;4.40;99.90;;;;;;5032487;28;20172;-69
2023/12/05 04:55:40;;;;;;;21.27;16.30;;;4.40;99.90;;;;;;5032535;28;20194;-69
2023/12/05 04:58:06;;;;;;;17.17;14.73;;;4.40;99.90;;;;;;5012320;28;20176;-69
2023/12/05 05:00:32;;;;;;;17.70;13.83;;;4.40;99.90;;;;;;5012621;28;20204;-69
2023/12/05 05:02:57;;;;;;;16.83;14.43;;;4.50;99.90;;;;;;5011710;28;20218;-69
2023/12/05 05:05:23;;;;;;;18.93;15.80;;;4.50;99.90;;;;;;5012520;28;20671;-69
2023/12/05 05:07:48;;;;;;;17.73;15.53;;;4.50;99.90;;;;;;5012502;28;20203;-69
2023/12/05 05:10:14;;;;;;;16.73;14.40;;;4.50;99.90;;;;;;5012141;28;20192;-69
2023/12/05 05:12:40;;;;;;;21.97;14.67;;;4.50;99.90;;;;;;5012382;28;20620;-69
2023/12/05 05:15:06;;;;;;;18.27;15.27;;;4.50;99.90;;;;;;5012444;28;20191;-69
2023/12/05 05:17:31;;;;;;;18.70;15.13;;;4.50;99.90;;;;;;5012715;28;20216;-69
2023/12/05 05:19:57;;;;;;;15.07;13.47;;;4.60;99.90;;;;;;5011957;28;20176;-69
2023/12/05 05:22:23;;;;;;;23.60;14.63;;;4.60;99.90;;;;;;5011889;28;20168;-69
2023/12/05 05:24:48;;;;;;;15.80;14.10;;;4.60;99.90;;;;;;5012127;28;20172;-69
2023/12/05 05:27:14;;;;;;;19.37;14.37;;;4.60;99.90;;;;;;5028914;28;20599;-69
2023/12/05 05:29:39;;;;;;;16.93;14.43;;;4.70;99.90;;;;;;5031807;28;20187;-69
2023/12/05 05:32:05;;;;;;;18.00;14.70;;;4.70;99.90;;;;;;5031344;28;20175;-69
2023/12/05 05:34:31;;;;;;;16.20;14.50;;;4.70;99.90;;;;;;5031733;28;20547;-69
2023/12/05 05:36:56;;;;;;;16.57;14.53;;;4.70;99.90;;;;;;5031722;28;20207;-69
2023/12/05 05:39:22;;;;;;;19.03;15.03;;;4.70;99.90;;;;;;5031512;28;20570;-69
2023/12/05 05:41:47;;;;;;;18.87;14.80;;;4.70;99.90;;;;;;5015261;28;20211;-68
2023/12/05 05:44:13;;;;;;;19.77;14.87;;;4.70;99.90;;;;;;5011518;28;20230;-68
2023/12/05 05:46:38;;;;;;;18.73;14.70;;;4.70;99.90;;;;;;5011680;28;20668;-69
2023/12/05 05:49:04;;;;;;;20.50;15.30;;;4.70;99.90;;;;;;5011561;28;20259;-69
2023/12/05 05:51:29;;;;;;;19.00;15.33;;;4.80;99.90;;;;;;5011429;28;20172;-69
2023/12/05 05:53:55;;;;;;;17.30;14.37;;;4.80;99.90;;;;;;5017827;28;20262;-69
2023/12/05 05:56:22;;;;;;;17.13;14.73;;;4.80;99.90;;;;;;5031667;28;20187;-69
2023/12/05 05:58:47;;;;;;;18.63;14.57;;;4.80;99.90;;;;;;5031222;28;20563;-69
2023/12/05 06:01:13;;;;;;;16.80;14.57;;;4.80;99.90;;;;;;5030787;28;20199;-69
2023/12/05 06:03:40;;;;;;;19.13;14.53;;;4.80;99.90;;;;;;5031448;28;20171;-69
2023/12/05 06:06:07;;;;;;;19.10;15.07;;;4.80;99.90;;;;;;5030925;28;20290;-69
2023/12/05 06:08:32;;;;;;;16.47;13.73;;;4.80;99.90;;;;;;5030928;28;20595;-69
2023/12/05 06:10:58;;;;;;;21.23;14.67;;;4.90;99.90;;;;;;5030804;28;20175;-69
2023/12/05 06:13:23;;;;;;;18.03;14.90;;;4.90;99.90;;;;;;5030599;28;20211;-69
2023/12/05 06:15:49;;;;;;;20.07;14.60;;;4.90;99.90;;;;;;5030467;28;20261;-69
2023/12/05 06:18:15;;;;;;;19.17;14.70;;;4.90;99.90;;;;;;5030755;28;20279;-69
2023/12/05 06:20:42;;;;;;;20.50;15.10;;;4.90;99.90;;;;;;5030931;28;20199;-68
2023/12/05 06:23:08;;;;;;;19.20;14.70;;;4.90;99.90;;;;;;5026606;28;20203;-69
2023/12/05 06:25:33;;;;;;;21.33;15.00;;;5.00;99.90;;;;;;5011098;28;20192;-69
2023/12/05 06:27:59;;;;;;;22.77;14.83;;;5.00;99.90;;;;;;5010857;28;20172;-69
2023/12/05 06:30:25;;;;;;;18.77;16.27;;;5.00;99.90;;;;;;5010666;28;20172;-69
2023/12/05 06:32:50;;;;;;;18.17;14.33;;;5.00;99.90;;;;;;5011059;28;20169;-69
2023/12/05 06:35:16;;;;;;;20.73;16.00;;;5.00;99.90;;;;;;5010531;28;20207;-69
2023/12/05 06:37:42;;;;;;;23.07;16.27;;;5.10;99.90;;;;;;5013450;28;20195;-69
2023/12/05 06:40:08;;;;;;;21.40;14.43;;;5.10;99.90;;;;;;5030162;28;20196;-69
2023/12/05 06:42:34;;;;;;;19.57;15.23;;;5.10;99.90;;;;;;5030232;28;20270;-69
2023/12/05 06:45:00;;;;;;;19.23;14.97;;;5.20;99.90;;;;;;5030439;28;20168;-69
2023/12/05 06:47:27;;;;;;;22.47;15.00;;;5.20;99.90;;;;;;5030273;28;20525;-69
2023/12/05 06:49:52;;;;;;;19.80;14.00;;;5.20;99.90;;;;;;5030391;28;20163;-69
2023/12/05 06:52:19;;;;;;;18.67;14.23;;;5.20;99.90;;;;;;5029818;28;20249;-70
2023/12/05 06:54:45;;;;;;;16.80;13.00;;;5.20;99.90;;;;;;5030361;28;20170;-70
2023/12/05 06:57:11;;;;;;;20.97;14.37;;;5.20;99.90;;;;;;5028653;28;20225;-70
2023/12/05 06:59:38;;;;;;;17.43;12.93;;;5.20;99.90;;;;;;5028920;28;20179;-70
2023/12/05 07:02:04;;;;;;;20.40;13.43;;;5.20;99.90;;;;;;5009966;28;20235;-70
2023/12/05 07:04:30;;;;;;;14.93;12.40;;;5.20;99.90;;;;;;5010178;28;20655;-69
2023/12/05 07:06:56;;;;;;;15.23;11.03;;;5.20;99.90;;;;;;5010141;28;20280;-71
2023/12/05 07:09:22;;;;;;;15.17;11.57;;;5.20;99.90;;;;;;5010126;28;20164;-71
2023/12/05 07:11:47;;;;;;;17.17;12.33;;;5.20;99.90;;;;;;5010047;28;20183;-70
2023/12/05 07:14:13;;;;;;;15.00;12.23;;;5.20;99.90;;;;;;5009784;28;20183;-71
2023/12/05 07:16:39;;;;;;;13.80;11.47;;;5.20;99.90;;;;;;5010136;28;20287;-71
2023/12/05 07:19:04;;;;;;;14.87;12.33;;;5.20;99.90;;;;;;5010619;28;20173;-71
2023/12/05 07:21:30;;;;;;;15.63;12.43;;;5.20;99.90;;;;;;5009930;28;20203;-72
2023/12/05 07:23:56;;;;;;;18.97;14.33;;;5.20;99.90;;;;;;5022605;28;20654;-72
2023/12/05 07:26:22;;;;;;;16.20;13.80;;;5.20;99.90;;;;;;5032649;28;20206;-71
2023/12/05 07:28:48;;;;;;;14.47;11.77;;;5.20;99.90;;;;;;5033831;28;20177;-71
2023/12/05 07:31:13;;;;;;;14.17;11.60;;;5.30;99.90;;;;;;5033026;28;20190;-72
2023/12/05 07:33:39;;;;;;;16.40;12.37;;;5.30;99.90;;;;;;5033873;28;20225;-71
2023/12/05 07:36:05;;;;;;;14.40;11.93;;;;;;;;;;5033418;28;20211;-71
2023/12/05 07:38:32;;;;;;;12.53;11.07;;;5.30;99.90;;;;;;5014393;28;20188;-71
2023/12/05 07:40:58;;;;;;;14.20;11.53;;;5.40;99.90;;;;;;5013664;28;20672;-71
2023/12/05 07:43:24;;;;;;;16.73;11.70;;;5.40;99.90;;;;;;5013598;28;20179;-71
2023/12/05 07:45:50;;;;;;;18.60;11.57;;;5.40;99.90;;;;;;5013545;28;20196;-71
2023/12/05 07:48:16;;;;;;;15.23;11.17;;;;;;;;;;5013166;28;20195;-71
2023/12/05 07:50:43;;;;;;;13.23;11.70;;;;;;;;;;5025206;28;20222;-71
2023/12/05 07:53:09;;;;;;;14.50;11.40;;;5.40;99.90;;;;;;5045382;28;20727;-72
2023/12/05 07:55:34;;;;;;;13.90;11.83;;;5.50;99.90;;;;;;5013505;28;20200;-72
2023/12/05 07:58:00;;;;;;;14.70;13.20;;;;;;;;;;5013341;28;20176;-72
2023/12/05 08:00:26;;;;;;;17.23;11.10;;;;;;;;;;5013143;28;20204;-72
2023/12/05 08:02:52;;;;;;;13.23;11.33;;;5.60;99.90;;;;;;5012899;28;20168;-72
2023/12/05 08:05:18;;;;;;;15.83;12.33;;;5.70;99.90;;;;;;5013999;28;20624;-72
2023/12/05 08:07:44;;;;;;;13.63;11.73;;;;;;;;;;5013071;28;20255;-72
2023/12/05 08:10:10;;;;;;;16.70;10.53;;;5.70;99.90;;;;;;5012693;28;20176;-72
2023/12/05 08:12:36;;;;;;;13.97;10.53;;;;;;;;;;5012879;28;20191;-72
2023/12/05 08:15:03;;;;;;;11.07;9.87;;;5.80;99.90;;;;;;5012821;28;20292;-72
2023/12/05 08:17:29;;;;;;;11.27;10.07;;;5.90;99.90;;;;;;5021049;28;20188;-72
2023/12/05 08:19:55;;;;;;;11.13;9.87;;;5.90;99.90;;;;;;5032461;28;20259;-72
2023/12/05 08:22:21;;;;;;;12.43;10.73;;;;;;;;;;5032557;28;20205;-73
2023/12/05 08:24:48;;;;;;;13.17;9.53;;;;;;;;;;5032457;28;20250;-72
2023/12/05 08:27:14;;;;;;;16.23;9.90;;;;;;;;;;5032329;28;20221;-72
2023/12/05 08:29:39;;;;;;;12.47;10.27;;;6.00;99.90;;;;;;5032692;28;20176;-73
2023/12/05 08:32:07;;;;;;;13.70;10.03;;;6.10;99.90;;;;;;5025813;28;20176;-72
2023/12/05 08:34:33;;;;;;;11.53;9.67;;;6.10;99.90;;;;;;5032428;28;20263;-72
2023/12/05 08:36:59;;;;;;;12.50;10.23;;;;;;;;;;5031612;28;20344;-73
2023/12/05 08:39:25;;;;;;;11.13;9.57;;;6.20;99.90;;;;;;5032366;28;20175;-73
2023/12/05 08:41:52;;;;;;;18.10;9.47;;;6.30;99.90;;;;;;5032904;28;20203;-72
2023/12/05 08:44:18;;;;;;;12.10;9.60;;;6.30;99.90;;;;;;5031982;28;20168;-72
2023/12/05 08:46:46;;;;;;;10.67;9.60;;;6.30;99.90;;;;;;5014053;28;20278;-71
2023/12/05 08:49:12;;;;;;;9.90;8.90;;;6.40;99.90;;;;;;5012344;28;20557;-71
2023/12/05 08:51:37;;;;;;;12.57;9.27;;;6.40;99.90;;;;;;5012307;28;20270;-71
2023/12/05 08:54:03;;;;;;;12.10;8.90;;;6.40;99.90;;;;;;5011846;28;20180;-71
2023/12/05 08:56:32;;;;;;;13.90;11.67;;;6.50;99.90;;;;;;5012056;28;20207;-71
2023/12/05 08:58:57;;;;;;;12.63;10.57;;;6.40;99.90;;;;;;5012729;28;20255;-71
2023/12/05 09:01:23;;;;;;;12.17;10.60;;;6.50;99.90;;;;;;5011521;28;20294;-70
2023/12/05 09:03:49;;;;;;;10.50;9.27;;;6.50;99.90;;;;;;5012467;28;20169;-71
2023/12/05 09:06:15;;;;;;;13.33;10.70;;;6.50;99.90;;;;;;5011920;28;20228;-71
2023/12/05 09:08:40;;;;;;;11.60;9.57;;;6.50;99.90;;;;;;5012504;28;20206;-71
2023/12/05 09:11:06;;;;;;;8.63;7.73;;;6.60;99.90;;;;;;5012235;28;20176;-71
2023/12/05 09:13:32;;;;;;;10.17;8.73;;;6.60;99.90;;;;;;5012381;28;20184;-71
2023/12/05 09:15:58;;;;;;;8.80;7.90;;;6.60;99.90;;;;;;5012030;28;20195;-71
2023/12/05 09:18:23;;;;;;;12.70;8.60;;;6.70;99.90;;;;;;5011988;28;20181;-71
2023/12/05 09:20:49;;;;;;;11.80;8.13;;;6.70;99.90;;;;;;5011970;28;20654;-72
2023/12/05 09:23:14;;;;;;;12.00;9.47;;;6.80;99.90;;;;;;5027472;28;20187;-72
2023/12/05 09:25:40;;;;;;;12.97;10.93;;;6.80;99.90;;;;;;5025112;28;20204;-71
2023/12/05 09:28:06;;;;;;;14.27;10.53;;;6.80;99.90;;;;;;5012298;28;20169;-71
2023/12/05 09:30:31;;;;;;;12.17;10.60;;;6.80;99.90;;;;;;5010372;28;20187;-71
2023/12/05 09:32:57;;;;;;;9.10;8.20;;;6.90;99.90;;;;;;5012333;28;20192;-71
2023/12/05 09:35:22;;;;;;;10.03;8.80;;;7.00;99.90;;;;;;5012222;28;20219;-71
2023/12/05 09:37:48;;;;;;;9.00;8.10;;;6.90;99.90;;;;;;5012613;28;20191;-71
2023/12/05 09:40:14;;;;;;;9.03;8.10;;;6.90;99.90;;;;;;5011390;28;20180;-71
2023/12/05 09:42:42;;;;;;;10.23;9.20;;;7.00;99.90;;;;;;5012115;28;20180;-71
2023/12/05 09:45:13;;;;;;;10.17;7.80;;;7.00;99.90;;;;;;5012286;28;20548;-71
2023/12/05 09:47:41;;;;;;;12.60;10.07;;;7.00;99.90;;;;;;5012550;28;20176;-71
2023/12/05 09:50:08;;;;;;;8.47;7.53;;;7.00;99.90;;;;;;5012383;28;20674;-71
2023/12/05 09:52:35;;;;;;;10.67;8.87;;;7.00;99.90;;;;;;5012018;28;20176;-73
2023/12/05 09:55:01;;;;;;;10.13;7.67;;;7.00;99.90;;;;;;5012281;28;20172;-70
2023/12/05 09:57:29;;;;;;;8.73;7.87;;;7.00;99.90;;;;;;5012293;28;20187;-71
2023/12/05 09:59:54;;;;;;;8.40;7.63;;;7.00;99.90;;;;;;5012293;28;20256;-71
2023/12/05 10:02:26;;;;;;;12.50;8.13;;;7.00;99.90;;;;;;5012107;28;20275;-71
2023/12/05 10:05:00;;;;;;;8.23;7.47;;;7.00;99.90;;;;;;5012622;28;20180;-71
2023/12/05 10:07:27;;;;;;;10.67;7.50;;;7.00;99.90;;;;;;5012070;28;20195;-71
2023/12/05 10:09:55;;;;;;;8.80;7.73;;;7.00;99.90;;;;;;5012148;28;20175;-71
2023/12/05 10:12:20;;;;;;;7.53;6.70;;;7.00;99.90;;;;;;5011848;28;20203;-72
2023/12/05 10:14:46;;;;;;;9.73;7.70;;;7.10;99.90;;;;;;5012001;28;20181;-71
2023/12/05 10:17:11;;;;;;;7.70;7.00;;;7.10;99.90;;;;;;5011934;28;20177;-71
2023/12/05 10:19:37;;;;;;;7.67;6.87;;;7.10;99.90;;;;;;5011852;28;20279;-71
2023/12/05 10:22:03;;;;;;;7.53;6.77;;;7.10;99.90;;;;;;5011746;28;20706;-71
2023/12/05 10:24:43;;;;;;;8.70;7.03;;;7.20;99.90;;;;;;5011522;28;20258;-71
2023/12/05 10:27:08;;;;;;;8.03;6.47;;;7.20;99.90;;;;;;5011645;28;20200;-71
2023/12/05 10:29:39;;;;;;;7.63;6.80;;;7.20;99.90;;;;;;5011728;28;20172;-71
2023/12/05 10:32:05;;;;;;;8.37;7.20;;;7.20;99.90;;;;;;5011816;28;20187;-71
2023/12/05 10:34:45;;;;;;;8.37;7.20;;;7.30;99.90;;;;;;5011798;28;20226;-71
2023/12/05 10:37:11;;;;;;;9.23;7.23;;;7.30;99.90;;;;;;5011867;28;20195;-70
2023/12/05 10:39:37;;;;;;;9.67;7.60;;;7.40;99.90;;;;;;5011769;28;20172;-71
2023/12/05 10:42:03;;;;;;;8.67;7.87;;;7.40;99.90;;;;;;5011158;28;20207;-71
2023/12/05 10:44:37;;;;;;;9.53;8.20;;;7.40;99.90;;;;;;5011627;28;20180;-71
2023/12/05 10:47:04;;;;;;;8.90;8.03;;;7.40;99.90;;;;;;5012053;28;20678;-71
2023/12/05 10:49:30;;;;;;;8.43;7.63;;;7.40;99.90;;;;;;5011643;28;20176;-71
2023/12/05 10:51:55;;;;;;;8.70;7.60;;;7.40;99.90;;;;;;5011721;28;20570;-72
2023/12/05 10:54:21;;;;;;;9.17;7.33;;;7.50;99.90;;;;;;5012081;28;20186;-71
2023/12/05 10:56:59;;;;;;;8.77;6.90;;;7.50;99.90;;;;;;5011470;28;20586;-71
2023/12/05 10:59:27;;;;;;;8.13;6.67;;;7.50;99.90;;;;;;5011400;28;20569;-71
2023/12/05 11:01:56;;;;;;;7.80;6.83;;;7.60;99.90;;;;;;5010965;28;20266;-71
2023/12/05 11:04:24;;;;;;;9.00;6.80;;;7.60;99.90;;;;;;5011363;28;20242;-71
2023/12/05 11:06:50;;;;;;;8.60;7.13;;;7.60;99.90;;;;;;5011524;28;20247;-71
2023/12/05 11:09:16;;;;;;;7.90;7.10;;;7.60;99.90;;;;;;5011456;28;20169;-73
2023/12/05 11:11:45;;;;;;;7.97;7.27;;;7.60;99.90;;;;;;5011291;28;20674;-72
2023/12/05 11:14:14;;;;;;;8.13;7.23;;;7.60;99.90;;;;;;5011727;28;20172;-72
2023/12/05 11:16:46;;;;;;;8.50;6.27;;;7.60;99.90;;;;;;5016364;28;20187;-72
2023/12/05 11:19:19;;;;;;;6.77;6.17;;;7.60;99.90;;;;;;5000949;28;20544;-71
2023/12/05 11:22:00;;;;;;;7.27;6.30;;;7.60;99.90;;;;;;5000399;28;20232;-72
2023/12/05 11:24:32;;;;;;;5.93;5.37;;;7.60;99.90;;;;;;5011492;28;20173;-72
2023/12/05 11:27:27;;;;;;;6.27;5.17;;;7.60;99.90;;;;;;5011949;28;20192;-72
2023/12/05 11:30:30;;;;;;;5.07;4.40;;;7.50;99.90;;;;;;5010699;28;20168;-72
2023/12/05 11:33:12;;;;;;;5.20;4.60;;;7.50;99.90;;;;;;5010593;28;20183;-71
2023/12/05 11:35:47;;;;;;;4.97;4.57;;;7.50;99.90;;;;;;5010795;28;20211;-71
2023/12/05 11:38:16;;;;;;;4.50;4.20;;;7.50;99.90;;;;;;5011032;28;20644;-71
2023/12/05 11:40:41;;;;;;;4.70;4.30;;;7.50;99.90;;;;;;5010708;28;20212;-71
2023/12/05 11:43:11;;;;;;;4.53;4.13;;;7.50;99.90;;;;;;5011116;28;20165;-72
2023/12/05 11:45:42;;;;;;;7.07;4.70;;;7.50;99.90;;;;;;5017910;28;20191;-72
2023/12/05 11:48:23;;;;;;;4.90;4.50;;;7.50;99.90;;;;;;5030763;28;20168;-72
2023/12/05 11:50:51;;;;;;;4.53;4.27;;;7.60;99.90;;;;;;5028970;28;20748;-72
2023/12/05 11:53:20;;;;;;;4.90;4.50;;;7.60;99.90;;;;;;5017993;28;20180;-71
2023/12/05 11:55:47;;;;;;;4.90;4.60;;;7.60;99.90;;;;;;5010725;28;20267;-71
2023/12/05 11:58:30;;;;;;;4.80;4.50;;;7.60;99.90;;;;;;5009026;28;20548;-71
2023/12/05 12:01:14;;;;;;;4.90;4.60;;;7.70;99.90;;;;;;5010548;28;20269;-71
2023/12/05 12:03:49;;;;;;;4.40;4.10;;;7.60;99.90;;;;;;5010730;28;20548;-71
2023/12/05 12:06:25;;;;;;;4.60;4.30;;;7.60;99.90;;;;;;5008505;28;20204;-71
2023/12/05 12:08:53;;;;;;;4.40;4.10;;;7.60;99.90;;;;;;5010818;28;20190;-70
2023/12/05 12:11:22;;;;;;;5.43;5.03;;;7.60;99.90;;;;;;5010327;28;20652;-71
2023/12/05 12:13:51;;;;;;;6.37;5.77;;;7.60;99.90;;;;;;5020515;28;20179;-71
2023/12/05 12:16:18;;;;;;;4.97;4.67;;;7.60;99.90;;;;;;5033634;28;20191;-71
2023/12/05 12:18:45;;;;;;;4.50;4.20;;;7.60;99.90;;;;;;5033755;28;20167;-71
2023/12/05 12:21:10;;;;;;;8.37;7.57;;;7.60;99.90;;;;;;5033536;28;20210;-72
2023/12/05 12:23:37;;;;;;;4.97;4.20;;;7.60;99.90;;;;;;5033529;28;20176;-71
2023/12/05 12:26:07;;;;;;;5.27;4.87;;;7.70;99.90;;;;;;5033679;28;20279;-71
2023/12/05 12:28:33;;;;;;;4.37;4.07;;;7.70;99.90;;;;;;5024869;28;20195;-71
2023/12/05 12:31:00;;;;;;;4.10;3.90;;;7.70;99.90;;;;;;5013765;28;20177;-71
2023/12/05 12:33:38;;;;;;;4.30;4.00;;;7.60;99.90;;;;;;5013659;28;20234;-71
2023/12/05 12:36:05;;;;;;;4.80;4.40;;;7.70;99.90;;;;;;5013478;28;20247;-71
2023/12/05 12:38:35;;;;;;;4.90;4.60;;;7.70;99.90;;;;;;5013413;28;20183;-71
2023/12/05 12:41:01;;;;;;;4.83;4.53;;;7.70;99.90;;;;;;5015082;28;20687;-71
2023/12/05 12:43:29;;;;;;;6.80;6.20;;;7.70;99.90;;;;;;5033249;28;20230;-71
2023/12/05 12:45:54;;;;;;;4.93;4.63;;;7.70;99.90;;;;;;5033419;28;20183;-71